createdAt,value
2023-03-18T00:02:16.513Z,47.73
2023-03-18T00:04:45.617Z,47.70
2023-03-18T00:07:15.625Z,47.72
2023-03-18T00:09:45.112Z,47.63
2023-03-18T00:12:20.743Z,47.55
2023-03-18T00:14:50.094Z,47.42
2023-03-18T00:17:22.249Z,47.54
2023-03-18T00:19:53.907Z,47.46
2023-03-18T00:22:25.010Z,47.38
2023-03-18T00:24:55.036Z,47.22
2023-03-18T00:27:23.945Z,47.36
2023-03-18T00:29:52.994Z,46.94
2023-03-18T00:32:22.403Z,47.14
2023-03-18T00:34:51.307Z,47.03
2023-03-18T00:42:47.557Z,47.04
2023-03-18T00:45:17.593Z,47.04
2023-03-18T00:47:50.334Z,46.90
2023-03-18T00:50:17.150Z,46.91
2023-03-18T00:52:45.290Z,46.84
2023-03-18T00:55:15.811Z,46.75
2023-03-18T00:57:43.617Z,46.61
2023-03-18T01:00:11.607Z,46.71
2023-03-18T01:02:42.036Z,46.44
2023-03-18T01:05:11.877Z,46.79
2023-03-18T01:10:16.811Z,46.72
2023-03-18T01:12:46.765Z,46.54
2023-03-18T01:15:18.112Z,46.47
2023-03-18T01:17:47.972Z,46.46
2023-03-18T01:20:18.414Z,46.49
2023-03-18T01:22:48.973Z,46.30
2023-03-18T01:25:19.313Z,46.41
2023-03-18T01:30:36.100Z,46.18
2023-03-18T01:33:08.385Z,46.26
2023-03-18T01:35:42.040Z,46.21
2023-03-18T01:43:55.775Z,45.92
2023-03-18T01:46:39.021Z,46.08
2023-03-18T01:49:29.044Z,46.08
2023-03-18T01:51:58.987Z,46.04
2023-03-18T01:54:28.837Z,46.02
2023-03-18T01:57:04.434Z,46.08
2023-03-18T01:59:33.381Z,45.77
2023-03-18T02:02:09.280Z,46.10
2023-03-18T02:07:34.166Z,45.86
2023-03-18T02:12:47.416Z,45.70
2023-03-18T02:15:19.796Z,45.68
2023-03-18T02:17:51.927Z,45.59
2023-03-18T02:20:39.611Z,45.63
2023-03-18T02:23:36.297Z,45.77
2023-03-18T02:26:28.745Z,45.74
2023-03-18T02:29:01.440Z,45.48
2023-03-18T02:31:28.456Z,45.39
2023-03-18T02:33:55.221Z,45.61
2023-03-18T02:36:27.842Z,45.52
2023-03-18T02:38:58.098Z,45.76
2023-03-18T02:41:29.986Z,45.42
2023-03-18T02:43:59.316Z,45.47
2023-03-18T02:46:54.364Z,45.46
2023-03-18T02:49:24.786Z,45.40
2023-03-18T02:51:53.982Z,45.38
2023-03-18T02:54:35.778Z,45.34
2023-03-18T02:57:03.054Z,45.38
2023-03-18T02:59:32.620Z,45.14
2023-03-18T03:02:04.081Z,45.36
2023-03-18T03:04:33.809Z,45.30
2023-03-18T03:07:03.514Z,45.20
2023-03-18T03:09:31.078Z,45.23
2023-03-18T03:11:57.839Z,45.17
2023-03-18T03:14:24.558Z,45.19
2023-03-18T03:16:51.962Z,45.22
2023-03-18T03:19:18.573Z,44.96
2023-03-18T03:21:47.531Z,45.01
2023-03-18T03:24:16.475Z,45.00
2023-03-18T03:26:43.679Z,44.89
2023-03-18T03:29:12.959Z,44.99
2023-03-18T03:31:41.764Z,44.90
2023-03-18T03:34:13.249Z,44.84
2023-03-18T03:36:39.994Z,44.80
2023-03-18T03:39:09.874Z,44.98
2023-03-18T03:41:36.741Z,44.79
2023-03-18T03:44:06.525Z,44.75
2023-03-18T03:46:33.321Z,44.76
2023-03-18T03:49:00.098Z,44.76
2023-03-18T03:51:41.888Z,44.78
2023-03-18T03:54:13.310Z,44.70
2023-03-18T03:56:42.401Z,44.79
2023-03-18T03:59:11.750Z,44.66
2023-03-18T04:05:21.421Z,44.69
2023-03-18T04:07:53.025Z,44.69
2023-03-18T04:15:45.317Z,44.41
2023-03-18T04:18:14.893Z,44.43
2023-03-18T04:20:44.798Z,44.61
2023-03-18T04:23:13.578Z,44.49
2023-03-18T04:25:42.899Z,44.46
2023-03-18T04:28:11.685Z,44.62
2023-03-18T04:30:38.731Z,44.34
2023-03-18T04:35:43.753Z,44.35
2023-03-18T04:38:10.496Z,44.47
2023-03-18T04:40:40.097Z,44.23
2023-03-18T04:43:14.356Z,44.35
2023-03-18T04:45:45.760Z,44.09
2023-03-18T04:48:19.243Z,44.10
2023-03-18T04:50:53.578Z,44.28
2023-03-18T04:53:25.130Z,44.24
2023-03-18T04:55:55.554Z,44.25
2023-03-18T05:00:59.763Z,44.06
2023-03-18T05:03:30.766Z,43.94
2023-03-18T05:06:01.935Z,43.96
2023-03-18T05:13:54.073Z,43.92
2023-03-18T05:16:23.473Z,43.91
2023-03-18T05:18:52.886Z,43.95
2023-03-18T05:21:24.479Z,43.78
2023-03-18T05:23:58.213Z,43.96
2023-03-18T05:26:30.690Z,44.01
2023-03-18T05:29:00.501Z,43.87
2023-03-18T05:31:29.653Z,43.90
2023-03-18T05:33:56.345Z,43.85
2023-03-18T05:36:25.268Z,43.96
2023-03-18T05:38:52.499Z,43.70
2023-03-18T05:41:21.969Z,43.75
2023-03-18T05:43:51.111Z,43.74
2023-03-18T05:46:18.157Z,43.72
2023-03-18T05:48:47.005Z,43.65
2023-03-18T05:51:16.439Z,43.74
2023-03-18T05:53:46.624Z,43.81
2023-03-18T05:56:18.246Z,43.70
2023-03-18T05:58:44.980Z,43.65
2023-03-18T06:01:33.137Z,43.81
2023-03-18T06:04:01.157Z,43.63
2023-03-18T06:06:30.021Z,43.58
2023-03-18T06:09:01.353Z,43.64
2023-03-18T06:11:30.648Z,43.56
2023-03-18T06:13:57.428Z,43.44
2023-03-18T06:16:26.497Z,43.59
2023-03-18T06:18:53.692Z,43.51
2023-03-18T06:21:20.487Z,43.65
2023-03-18T06:23:47.116Z,43.41
2023-03-18T06:26:16.011Z,43.41
2023-03-18T06:28:42.805Z,43.44
2023-03-18T06:31:11.699Z,43.44
2023-03-18T06:33:43.158Z,43.34
2023-03-18T06:39:12.453Z,43.47
2023-03-18T06:41:39.749Z,43.43
2023-03-18T06:44:09.897Z,43.36
2023-03-18T06:46:37.397Z,43.30
2023-03-18T06:49:04.285Z,43.32
2023-03-18T06:51:33.114Z,43.30
2023-03-18T06:54:05.802Z,43.35
2023-03-18T06:56:34.771Z,43.22
2023-03-18T06:59:04.619Z,43.21
2023-03-18T07:01:32.826Z,43.33
2023-03-18T07:04:00.862Z,43.37
2023-03-18T07:06:30.215Z,43.16
2023-03-18T07:08:57.418Z,43.16
2023-03-18T07:11:27.109Z,43.24
2023-03-18T07:13:59.735Z,43.17
2023-03-18T07:16:31.553Z,43.16
2023-03-18T07:19:02.832Z,43.17
2023-03-18T07:21:34.167Z,43.10
2023-03-18T07:24:03.036Z,43.06
2023-03-18T07:26:34.415Z,42.95
2023-03-18T07:29:01.863Z,43.05
2023-03-18T07:31:30.687Z,43.13
2023-03-18T07:33:59.597Z,43.15
2023-03-18T07:36:28.380Z,42.96
2023-03-18T07:38:59.977Z,43.09
2023-03-18T07:41:28.861Z,42.83
2023-03-18T07:43:58.730Z,43.11
2023-03-18T07:46:27.593Z,42.99
2023-03-18T07:48:59.026Z,42.85
2023-03-18T07:51:28.091Z,43.07
2023-03-18T07:53:57.438Z,42.97
2023-03-18T07:56:27.296Z,42.72
2023-03-18T08:04:19.973Z,42.82
2023-03-18T08:06:50.119Z,42.82
2023-03-18T08:09:18.964Z,42.86
2023-03-18T08:11:45.900Z,42.77
2023-03-18T08:16:53.911Z,42.82
2023-03-18T08:19:25.220Z,42.76
2023-03-18T08:21:57.780Z,42.62
2023-03-18T08:24:28.361Z,42.92
2023-03-18T08:26:55.708Z,42.79
2023-03-18T08:29:24.565Z,43.01
2023-03-18T08:31:54.580Z,42.99
2023-03-18T08:34:42.802Z,42.95
2023-03-18T08:37:09.741Z,42.93
2023-03-18T08:39:38.599Z,43.00
2023-03-18T08:42:07.560Z,42.80
2023-03-18T08:44:39.421Z,42.83
2023-03-18T08:47:08.705Z,42.68
2023-03-18T08:49:38.740Z,42.71
2023-03-18T08:52:08.386Z,42.57
2023-03-18T08:54:36.308Z,42.76
2023-03-18T08:57:03.747Z,42.76
2023-03-18T08:59:39.710Z,42.65
2023-03-18T09:02:07.161Z,42.48
2023-03-18T09:04:40.117Z,42.50
2023-03-18T09:07:13.047Z,42.39
2023-03-18T09:09:44.419Z,42.43
2023-03-18T09:12:14.184Z,42.26
2023-03-18T09:14:44.269Z,42.23
2023-03-18T09:17:16.338Z,42.15
2023-03-18T09:19:43.026Z,42.09
2023-03-18T09:22:11.829Z,42.06
2023-03-18T09:24:41.665Z,41.99
2023-03-18T09:27:10.567Z,41.98
2023-03-18T09:29:42.019Z,42.07
2023-03-18T09:32:11.218Z,42.11
2023-03-18T09:34:37.891Z,41.96
2023-03-18T09:37:05.137Z,42.06
2023-03-18T09:39:34.914Z,41.95
2023-03-18T09:42:05.512Z,42.06
2023-03-18T09:44:34.140Z,42.08
2023-03-18T09:47:50.866Z,41.98
2023-03-18T09:50:52.721Z,41.87
2023-03-18T09:53:32.754Z,42.01
2023-03-18T09:56:02.179Z,42.00
2023-03-18T09:58:46.763Z,42.10
2023-03-18T10:01:13.930Z,42.14
2023-03-18T10:03:51.111Z,41.84
2023-03-18T10:06:18.956Z,42.15
2023-03-18T10:08:53.124Z,42.13
2023-03-18T10:11:23.214Z,42.06
2023-03-18T10:14:29.321Z,42.05
2023-03-18T10:17:18.106Z,41.90
2023-03-18T10:19:52.680Z,41.85
2023-03-18T10:22:51.703Z,41.84
2023-03-18T10:25:47.671Z,41.87
2023-03-18T10:28:52.335Z,41.81
2023-03-18T10:31:47.630Z,41.88
2023-03-18T10:34:24.055Z,41.82
2023-03-18T10:37:19.080Z,41.85
2023-03-18T10:39:49.960Z,42.00
2023-03-18T10:42:23.558Z,41.92
2023-03-18T10:44:50.344Z,41.86
2023-03-18T10:47:25.300Z,41.86
2023-03-18T10:50:43.220Z,41.68
2023-03-18T10:53:37.442Z,41.74
2023-03-18T10:56:11.542Z,41.88
2023-03-18T10:58:38.995Z,41.81
2023-03-18T11:01:18.734Z,42.00
2023-03-18T11:04:06.191Z,41.82
2023-03-18T11:06:58.510Z,41.88
2023-03-18T11:09:33.537Z,41.66
2023-03-18T11:12:07.414Z,41.97
2023-03-18T11:14:34.807Z,41.91
2023-03-18T11:17:20.463Z,41.85
2023-03-18T11:20:20.922Z,42.04
2023-03-18T11:22:56.182Z,41.83
2023-03-18T11:25:26.616Z,41.86
2023-03-18T11:28:05.331Z,41.93
2023-03-18T11:30:48.334Z,41.95
2023-03-18T11:33:19.822Z,41.75
2023-03-18T11:35:58.322Z,42.09
2023-03-18T11:38:28.754Z,41.92
2023-03-18T11:41:18.074Z,42.03
2023-03-18T11:44:11.456Z,42.29
2023-03-18T11:46:47.967Z,42.05
2023-03-18T11:49:20.266Z,42.04
2023-03-18T11:51:56.171Z,42.01
2023-03-18T11:54:45.141Z,42.15
2023-03-18T11:57:32.408Z,41.97
2023-03-18T12:00:17.563Z,42.17
2023-03-18T12:02:50.687Z,42.01
2023-03-18T12:05:38.967Z,41.99
2023-03-18T12:08:29.282Z,42.46
2023-03-18T12:11:14.764Z,42.27
2023-03-18T12:14:00.170Z,42.13
2023-03-18T12:16:50.503Z,42.18
2023-03-18T12:19:20.088Z,42.23
2023-03-18T12:21:59.088Z,42.07
2023-03-18T12:24:36.738Z,42.08
2023-03-18T12:27:07.517Z,42.05
2023-03-18T12:30:01.996Z,42.24
2023-03-18T12:32:35.552Z,42.11
2023-03-18T12:35:09.227Z,41.96
2023-03-18T12:37:47.822Z,42.25
2023-03-18T12:40:52.617Z,41.97
2023-03-18T12:43:22.182Z,42.10
2023-03-18T12:45:50.972Z,42.06
2023-03-18T12:48:44.281Z,42.11
2023-03-18T12:51:16.851Z,42.24
2023-03-18T12:53:51.709Z,42.05
2023-03-18T12:56:25.739Z,42.10
2023-03-18T12:59:17.219Z,42.21
2023-03-18T13:01:53.384Z,42.11
2023-03-18T13:04:24.638Z,42.13
2023-03-18T13:06:57.524Z,42.12
2023-03-18T13:09:43.646Z,42.37
2023-03-18T13:12:13.344Z,42.17
2023-03-18T13:14:53.761Z,42.41
2023-03-18T13:17:25.141Z,42.16
2023-03-18T13:19:56.803Z,42.25
2023-03-18T13:22:42.791Z,42.33
2023-03-18T13:25:24.483Z,42.33
2023-03-18T13:28:04.676Z,42.22
2023-03-18T13:30:34.584Z,42.24
2023-03-18T13:33:29.431Z,42.23
2023-03-18T13:36:08.798Z,42.14
2023-03-18T13:38:57.909Z,42.32
2023-03-18T13:41:46.574Z,42.23
2023-03-18T13:44:23.521Z,42.36
2023-03-18T13:47:04.953Z,42.29
2023-03-18T13:49:31.935Z,42.15
2023-03-18T13:52:04.340Z,42.32
2023-03-18T13:54:38.577Z,42.21
2023-03-18T13:57:26.736Z,42.19
2023-03-18T14:00:14.857Z,42.26
2023-03-18T14:02:45.675Z,42.14
2023-03-18T14:05:35.354Z,42.41
2023-03-18T14:08:34.871Z,42.40
2023-03-18T14:11:20.213Z,42.39
2023-03-18T14:14:03.003Z,42.38
2023-03-18T14:16:30.987Z,42.24
2023-03-18T14:19:03.353Z,42.26
2023-03-18T14:21:33.627Z,42.33
2023-03-18T14:24:16.123Z,42.40
2023-03-18T14:26:49.229Z,42.28
2023-03-18T14:29:24.182Z,42.27
2023-03-18T14:32:03.028Z,42.23
2023-03-18T14:34:33.731Z,42.36
2023-03-18T14:37:03.281Z,42.20
2023-03-18T14:39:51.452Z,42.29
2023-03-18T14:42:41.991Z,42.26
2023-03-18T14:45:21.199Z,42.34
2023-03-18T14:47:50.850Z,42.16
2023-03-18T14:50:45.518Z,42.23
2023-03-18T14:53:22.811Z,42.25
2023-03-18T14:55:56.938Z,42.24
2023-03-18T14:58:26.644Z,42.21
2023-03-18T15:01:17.935Z,42.60
2023-03-18T15:03:49.386Z,42.22
2023-03-18T15:06:21.742Z,42.04
2023-03-18T15:09:08.913Z,42.35
2023-03-18T15:11:40.012Z,42.23
2023-03-18T15:14:18.204Z,42.18
2023-03-18T15:16:54.756Z,42.26
2023-03-18T15:19:21.717Z,42.17
2023-03-18T15:21:51.558Z,42.18
2023-03-18T15:24:23.101Z,42.24
2023-03-18T15:27:03.036Z,42.13
2023-03-18T15:29:37.417Z,42.06
2023-03-18T15:32:10.365Z,42.33
2023-03-18T15:34:39.715Z,42.37
2023-03-18T15:39:46.326Z,42.10
2023-03-18T15:42:26.554Z,42.37
2023-03-18T15:44:58.533Z,42.14
2023-03-18T15:47:31.721Z,42.00
2023-03-18T15:50:09.842Z,42.15
2023-03-18T15:52:40.890Z,42.09
2023-03-18T15:55:29.505Z,42.29
2023-03-18T15:57:56.942Z,42.19
2023-03-18T16:00:23.879Z,42.21
2023-03-18T16:02:51.633Z,42.17
2023-03-18T16:05:28.352Z,42.18
2023-03-18T16:08:14.652Z,42.15
2023-03-18T16:10:43.765Z,42.18
2023-03-18T16:13:15.189Z,42.31
2023-03-18T16:15:44.887Z,42.12
2023-03-18T16:18:13.942Z,42.17
2023-03-18T16:20:41.990Z,42.11
2023-03-18T16:23:08.746Z,42.16
2023-03-18T16:25:38.025Z,42.18
2023-03-18T16:28:04.963Z,42.20
2023-03-18T16:30:31.893Z,42.01
2023-03-18T16:32:58.710Z,42.10
2023-03-18T16:35:36.222Z,41.98
2023-03-18T16:38:06.431Z,42.15
2023-03-18T16:40:33.188Z,42.07
2023-03-18T16:42:59.906Z,42.16
2023-03-18T16:45:33.649Z,42.04
2023-03-18T16:48:09.459Z,42.23
2023-03-18T16:50:37.239Z,42.03
2023-03-18T16:53:13.005Z,42.05
2023-03-18T16:55:39.915Z,42.25
2023-03-18T16:58:06.983Z,42.25
2023-03-18T17:00:36.704Z,42.10
2023-03-18T17:03:08.782Z,42.05
2023-03-18T17:05:40.088Z,42.12
2023-03-18T17:08:07.131Z,42.17
2023-03-18T17:10:37.210Z,42.14
2023-03-18T17:13:07.721Z,42.02
2023-03-18T17:15:37.057Z,42.22
2023-03-18T17:18:12.752Z,42.13
2023-03-18T17:20:44.734Z,42.17
2023-03-18T17:23:27.107Z,42.16
2023-03-18T17:25:59.231Z,42.31
2023-03-18T17:28:30.541Z,42.05
2023-03-18T17:31:00.328Z,42.13
2023-03-18T17:33:29.209Z,42.16
2023-03-18T17:35:56.679Z,42.14
2023-03-18T17:38:25.488Z,42.38
2023-03-18T17:40:54.654Z,41.87
2023-03-18T17:43:29.850Z,42.16
2023-03-18T17:45:57.066Z,42.08
2023-03-18T17:48:36.629Z,42.06
2023-03-18T17:51:12.416Z,42.11
2023-03-18T17:53:48.473Z,42.18
2023-03-18T17:56:22.473Z,41.98
2023-03-18T17:58:50.528Z,42.05
2023-03-18T18:01:24.484Z,42.12
2023-03-18T18:03:53.409Z,42.04
2023-03-18T18:06:25.463Z,41.95
2023-03-18T18:08:52.196Z,42.04
2023-03-18T18:11:25.678Z,41.96
2023-03-18T18:13:58.639Z,41.95
2023-03-18T18:16:31.568Z,42.05
2023-03-18T18:19:00.764Z,41.77
2023-03-18T18:21:32.228Z,42.03
2023-03-18T18:24:03.651Z,41.99
2023-03-18T18:26:33.328Z,41.89
2023-03-18T18:29:06.961Z,41.85
2023-03-18T18:31:41.697Z,41.87
2023-03-18T18:34:08.908Z,42.00
2023-03-18T18:36:35.606Z,41.85
2023-03-18T18:39:02.384Z,41.84
2023-03-18T18:41:29.121Z,41.90
2023-03-18T18:44:00.936Z,41.88
2023-03-18T18:46:31.117Z,41.83
2023-03-18T18:49:00.764Z,41.81
2023-03-18T18:51:33.112Z,41.82
2023-03-18T18:54:00.107Z,41.75
2023-03-18T18:56:34.317Z,41.80
2023-03-18T18:59:09.611Z,41.84
2023-03-18T19:01:36.295Z,41.78
2023-03-18T19:04:05.240Z,41.71
2023-03-18T19:06:35.474Z,41.72
2023-03-18T19:09:05.579Z,41.79
2023-03-18T19:11:34.831Z,41.80
2023-03-18T19:14:26.461Z,41.78
2023-03-18T19:16:59.000Z,41.85
2023-03-18T19:19:27.864Z,41.74
2023-03-18T19:21:56.706Z,41.80
2023-03-18T19:24:32.274Z,41.75
2023-03-18T19:27:03.330Z,41.74
2023-03-18T19:29:33.216Z,41.60
2023-03-18T19:32:01.509Z,41.77
2023-03-18T19:34:29.824Z,41.76
2023-03-18T19:36:56.699Z,41.77
2023-03-18T19:39:31.266Z,41.73
2023-03-18T19:42:03.167Z,41.67
2023-03-18T19:44:34.992Z,41.58
2023-03-18T19:47:04.063Z,41.71
2023-03-18T19:49:39.337Z,41.75
2023-03-18T19:52:16.599Z,41.54
2023-03-18T19:54:46.633Z,41.62
2023-03-18T19:57:27.601Z,41.70
2023-03-18T19:59:56.485Z,41.56
2023-03-18T20:02:27.472Z,41.56
2023-03-18T20:04:59.041Z,41.57
2023-03-18T20:07:26.997Z,41.62
2023-03-18T20:09:56.176Z,41.59
2023-03-18T20:12:39.399Z,41.50
2023-03-18T20:15:10.889Z,41.74
2023-03-18T20:17:39.075Z,41.55
2023-03-18T20:20:07.489Z,41.78
2023-03-18T20:22:41.679Z,41.54
2023-03-18T20:25:13.582Z,41.46
2023-03-18T20:27:40.272Z,41.48
2023-03-18T20:30:23.592Z,41.60
2023-03-18T20:32:54.917Z,41.68
2023-03-18T20:35:23.962Z,41.35
2023-03-18T20:37:54.233Z,41.58
2023-03-18T20:40:24.121Z,41.57
2023-03-18T20:42:52.568Z,41.71
2023-03-18T20:45:19.716Z,41.79
2023-03-18T20:47:51.165Z,41.59
2023-03-18T20:50:27.272Z,41.65
2023-03-18T20:52:53.956Z,41.75
2023-03-18T20:55:25.618Z,41.62
2023-03-18T20:57:52.637Z,41.69
2023-03-18T21:03:25.208Z,41.72
2023-03-18T21:05:57.838Z,41.69
2023-03-18T21:08:25.467Z,41.73
2023-03-18T21:10:52.885Z,41.80
2023-03-18T21:13:38.303Z,41.88
2023-03-18T21:16:13.704Z,41.69
2023-03-18T21:18:45.512Z,41.71
2023-03-18T21:21:33.165Z,41.60
2023-03-18T21:24:04.636Z,41.73
2023-03-18T21:26:34.119Z,41.70
2023-03-18T21:29:07.835Z,41.78
2023-03-18T21:31:37.152Z,41.74
2023-03-18T21:34:08.167Z,41.77
2023-03-18T21:36:34.844Z,41.68
2023-03-18T21:39:06.522Z,41.78
2023-03-18T21:41:37.856Z,41.77
2023-03-18T21:44:04.791Z,41.74
2023-03-18T21:46:32.130Z,41.63
2023-03-18T21:48:58.962Z,41.59
2023-03-18T21:51:37.914Z,41.59
2023-03-18T21:54:08.712Z,41.64
2023-03-18T21:56:37.658Z,41.66
2023-03-18T21:59:04.310Z,41.60
2023-03-18T22:04:14.756Z,41.56
2023-03-18T22:09:32.609Z,41.88
2023-03-18T22:12:04.544Z,41.64
2023-03-18T22:14:36.080Z,41.52
2023-03-18T22:17:08.708Z,41.59
2023-03-18T22:19:35.670Z,41.69
2023-03-18T22:22:05.265Z,41.56
2023-03-18T22:24:32.011Z,41.67
2023-03-18T22:27:24.906Z,41.63
2023-03-18T22:29:54.275Z,41.45
2023-03-18T22:32:45.827Z,41.49
2023-03-18T22:35:20.888Z,41.55
2023-03-18T22:37:47.844Z,41.51
2023-03-18T22:40:26.140Z,41.48
2023-03-18T22:42:59.620Z,41.48
2023-03-18T22:45:38.068Z,41.68
2023-03-18T22:48:07.309Z,41.48
2023-03-18T22:50:37.784Z,41.55
2023-03-18T22:53:06.276Z,41.50
2023-03-18T22:55:43.780Z,41.59
2023-03-18T22:58:40.483Z,41.40
2023-03-18T23:01:07.368Z,41.38
2023-03-18T23:03:35.272Z,41.44
2023-03-18T23:06:02.776Z,41.50
2023-03-18T23:13:55.252Z,41.42
2023-03-18T23:19:19.583Z,41.46
2023-03-18T23:21:49.246Z,41.46
2023-03-18T23:24:35.419Z,41.43
2023-03-18T23:27:07.296Z,41.41
2023-03-18T23:29:34.051Z,41.39
2023-03-18T23:32:04.067Z,41.42
2023-03-18T23:34:32.879Z,41.32
2023-03-18T23:37:01.482Z,41.36
2023-03-18T23:39:33.024Z,41.33
2023-03-18T23:47:39.653Z,41.50
2023-03-18T23:50:10.002Z,41.33
2023-03-18T23:52:36.975Z,41.34
2023-03-18T23:55:18.386Z,41.25
2023-03-18T23:57:53.520Z,41.14
